Time;durP1;ratioP1;P1;durP2;ratioP2;P2;SDS_P1;SDS_P2;PMS_P1;PMS_P2;Temp;Humidity;BMP_temperature;BMP_pressure;BME280_temperature;BME280_humidity;BME280_pressure;Samples;Min_cycle;Max_cycle;Signal;HPM_P1;HPM_P2
2022/08/12 00:44:18;;;;;;;;;;;;;;;18.74;60.45;101890.81;6272731;22;20023;-85
2022/08/12 00:46:48;;;;;;;7.40;4.55;;;;;;;18.63;61.52;101886.94;6245903;22;19907;-84
2022/08/12 00:49:15;;;;;;;9.05;4.88;;;;;;;18.60;62.69;101889.66;6247775;22;20383;-85
2022/08/12 00:54:26;;;;;;;6.78;4.20;;;;;;;18.56;64.76;101888.94;6274618;22;20037;-85
2022/08/12 00:56:54;;;;;;;7.20;4.90;;;;;;;18.48;64.79;101889.22;6275800;22;20003;-85
2022/08/12 00:59:19;;;;;;;7.55;4.38;;;;;;;18.46;62.49;101891.06;6274852;22;20010;-85
2022/08/12 01:01:47;;;;;;;6.85;4.43;;;;;;;18.46;64.20;101892.81;6248746;22;19999;-84
2022/08/12 01:12:33;;;;;;;8.70;4.50;;;;;;;18.27;62.19;101895.31;6276031;22;20050;-84
2022/08/12 01:15:00;;;;;;;7.57;4.68;;;;;;;18.25;64.76;101894.50;6274744;22;19999;-85
2022/08/12 01:17:26;;;;;;;7.20;4.43;;;;;;;18.25;65.10;101889.25;6274136;22;19995;-84
2022/08/12 01:19:54;;;;;;;5.63;4.60;;;;;;;18.22;65.23;101892.00;6274446;22;20004;-85
2022/08/12 01:22:54;;;;;;;7.85;4.47;;;;;;;18.20;65.86;101898.22;6248461;22;20010;-84
2022/08/12 01:25:22;;;;;;;7.88;4.60;;;;;;;18.13;64.56;101898.47;6274037;22;20027;-85
2022/08/12 01:27:50;;;;;;;6.65;4.78;;;;;;;18.10;65.19;101889.84;6274613;22;20018;-85
2022/08/12 01:30:17;;;;;;;6.63;4.78;;;;;;;18.07;65.31;101892.59;6274432;22;20049;-85
2022/08/12 01:32:46;;;;;;;6.07;4.63;;;;;;;18.02;65.41;101891.91;6248587;22;19999;-85
2022/08/12 01:35:14;;;;;;;5.50;4.30;;;;;;;18.00;65.92;101888.50;6247700;22;20425;-85
2022/08/12 01:37:53;;;;;;;9.18;4.93;;;;;;;17.98;66.48;101888.56;6247233;22;20035;-85
2022/08/12 01:40:25;;;;;;;6.82;4.90;;;;;;;17.94;67.03;101879.09;6273435;22;20027;-85
2022/08/12 01:42:57;;;;;;;8.10;4.88;;;;;;;17.89;66.52;101888.03;6275281;22;20071;-85
2022/08/12 01:45:24;;;;;;;6.05;4.85;;;;;;;17.88;66.62;101881.09;6274823;22;20514;-84
2022/08/12 01:48:12;;;;;;;8.55;5.30;;;;;;;17.86;66.22;101885.53;6274841;22;19999;-85
2022/08/12 01:51:01;;;;;;;7.10;4.85;;;;;;;17.85;66.93;101889.94;6274354;22;20061;-80
2022/08/12 01:53:36;;;;;;;8.07;4.80;;;;;;;17.82;67.22;101889.16;6248370;22;20008;-80
2022/08/12 01:56:02;;;;;;;6.07;4.95;;;;;;;17.82;67.84;101884.78;6274518;22;19996;-80
2022/08/12 02:01:19;;;;;;;8.50;5.07;;;;;;;17.77;68.25;101889.34;6272458;22;20018;-80
2022/08/12 02:13:22;;;;;;;7.13;4.88;;;;;;;17.66;67.47;101876.63;6273680;22;20014;-80
2022/08/12 02:16:04;;;;;;;7.18;5.00;;;;;;;17.63;67.77;101886.38;6272467;22;20000;-80
2022/08/12 02:18:46;;;;;;;6.60;5.07;;;;;;;17.60;67.95;101879.47;6272927;22;20004;-80
2022/08/12 02:21:37;;;;;;;7.45;5.30;;;;;;;17.60;68.43;101878.59;6245329;22;20081;-80
2022/08/12 02:24:03;;;;;;;7.13;5.18;;;;;;;17.54;69.04;101877.03;6273069;22;20003;-80
2022/08/12 02:26:32;;;;;;;8.88;5.65;;;;;;;17.53;69.20;101874.50;6273385;22;20006;-80
2022/08/12 02:28:58;;;;;;;8.63;5.75;;;;;;;17.49;69.04;101868.47;6272444;22;20003;-80
2022/08/12 02:31:27;;;;;;;8.40;5.60;;;;;;;17.47;68.90;101886.03;6245713;22;20438;-80
2022/08/12 02:33:54;;;;;;;7.63;5.63;;;;;;;17.46;69.04;101873.84;6273220;22;20436;-80
2022/08/12 02:36:20;;;;;;;9.57;6.47;;;;;;;17.43;68.08;101878.34;6273106;22;20004;-80
2022/08/12 02:38:48;;;;;;;9.73;6.30;;;;;;;17.42;68.54;101879.25;6273234;22;20023;-80
2022/08/12 02:41:15;;;;;;;9.07;5.63;;;;;;;17.35;68.24;101876.84;6272319;22;19999;-80
2022/08/12 02:43:53;;;;;;;9.95;6.18;;;;;;;17.32;67.97;101873.47;6272915;22;20081;-80
2022/08/12 02:46:26;;;;;;;11.48;6.40;;;;;;;17.24;68.48;101872.88;6271630;22;20076;-80
2022/08/12 02:48:56;;;;;;;16.83;7.07;;;;;;;17.24;68.29;101872.88;6272928;22;20023;-80
2022/08/12 02:51:28;;;;;;;12.82;6.45;;;;;;;17.21;69.19;101875.59;6245744;22;20011;-80
2022/08/12 02:53:56;;;;;;;15.45;6.93;;;;;;;17.16;68.51;101873.16;6273567;22;20003;-80
2022/08/12 02:56:22;;;;;;;10.68;6.78;;;;;;;17.14;69.08;101874.97;6272064;22;20000;-80
2022/08/12 02:58:48;;;;;;;12.27;6.85;;;;;;;17.11;70.05;101874.22;6271131;22;20004;-80
2022/08/12 03:01:16;;;;;;;11.75;6.88;;;;;;;17.08;69.96;101867.31;6272719;22;20003;-80
2022/08/12 03:03:41;;;;;;;11.95;7.10;;;;;;;17.07;70.38;101865.59;6272779;22;20003;-80
2022/08/12 03:06:22;;;;;;;14.10;7.75;;;;;;;17.04;69.32;101870.97;6271154;22;20049;-80
2022/08/12 03:08:50;;;;;;;13.27;7.28;;;;;;;16.96;70.14;101865.13;6245680;22;20095;-80
2022/08/12 03:11:22;;;;;;;10.30;7.15;;;;;;;16.93;70.93;101863.44;6245092;22;20043;-80
2022/08/12 03:13:58;;;;;;;13.60;7.68;;;;;;;16.93;70.77;101862.59;6273265;22;20006;-80
2022/08/12 03:16:29;;;;;;;14.15;7.95;;;;;;;16.88;70.81;101864.50;6271944;22;20004;-80
2022/08/12 03:18:55;;;;;;;10.00;7.07;;;;;;;16.88;70.78;101861.91;6271555;22;20031;-80
2022/08/12 03:21:20;;;;;;;11.80;8.07;;;;;;;16.85;72.01;101865.50;6245488;22;20732;-80
2022/08/12 03:23:47;;;;;;;14.30;7.75;;;;;;;16.86;71.39;101867.19;6272028;22;20038;-80
2022/08/12 03:26:13;;;;;;;12.43;7.88;;;;;;;16.83;72.39;101867.28;6271614;22;20003;-80
2022/08/12 03:28:49;;;;;;;11.57;7.70;;;;;;;16.81;72.39;101863.00;6272845;22;20162;-85
2022/08/12 03:31:23;;;;;;;13.00;7.88;;;;;;;16.74;71.98;101857.13;6245099;22;20366;-84
2022/08/12 03:33:50;;;;;;;12.13;7.40;;;;;;;16.77;71.75;101869.25;6271885;22;20003;-84
2022/08/12 03:36:19;;;;;;;12.23;7.70;;;;;;;16.74;72.72;101872.81;6271341;22;19997;-84
2022/08/12 03:38:58;;;;;;;10.85;7.30;;;;;;;16.70;74.31;101863.38;6245444;22;20014;-84
2022/08/12 03:41:35;;;;;;;11.30;7.80;;;;;;;16.67;73.92;101862.59;6271847;22;20007;-85
2022/08/12 04:01:51;;;;;;;35.40;9.07;;;;;;;16.57;75.09;101864.66;6272143;22;20084;-85
2022/08/12 04:04:16;;;;;;;27.60;9.38;;;;;;;16.57;75.12;101865.50;6270846;22;20004;-85
2022/08/12 04:06:46;;;;;;;24.10;9.38;;;;;;;16.54;75.14;101865.59;6244384;22;20078;-84
2022/08/12 04:09:12;;;;;;;23.17;9.13;;;;;;;16.52;75.63;101867.38;6271743;22;20078;-85
2022/08/12 04:14:25;;;;;;;17.42;8.55;;;;;;;16.53;76.05;101871.72;6272170;22;20025;-85
2022/08/12 04:16:51;;;;;;;13.85;8.85;;;;;;;16.51;75.43;101865.66;6244615;22;20353;-85
2022/08/12 04:19:18;;;;;;;14.10;8.48;;;;;;;16.57;76.37;101862.03;6271923;22;20464;-84
2022/08/12 04:21:44;;;;;;;15.65;8.52;;;;;;;16.55;76.47;101869.06;6272044;22;20006;-85
2022/08/12 04:24:10;;;;;;;15.55;8.52;;;;;;;16.55;76.44;101872.53;6271272;22;20000;-84
2022/08/12 04:26:38;;;;;;;15.60;8.85;;;;;;;16.55;76.15;101871.69;6271961;22;20074;-85
2022/08/12 04:29:04;;;;;;;12.48;8.25;;;;;;;16.56;76.52;101871.63;6244127;22;20017;-85
2022/08/12 04:31:35;;;;;;;14.95;8.85;;;;;;;16.54;75.61;101873.44;6271633;22;20011;-85
2022/08/12 04:34:01;;;;;;;16.55;8.68;;;;;;;16.57;76.57;101873.34;6272691;22;19999;-84
2022/08/12 04:36:27;;;;;;;12.75;8.85;;;;;;;16.53;76.66;101868.25;6243834;22;20086;-84
2022/08/12 04:38:53;;;;;;;15.27;8.77;;;;;;;16.54;77.21;101867.34;6270425;22;20400;-84
2022/08/12 04:41:19;;;;;;;13.82;8.95;;;;;;;16.53;77.44;101868.25;6244487;22;20008;-85
2022/08/12 04:43:45;;;;;;;13.82;8.73;;;;;;;16.52;77.42;101870.00;6272430;22;20008;-85
2022/08/12 04:46:11;;;;;;;13.70;9.10;;;;;;;16.52;77.30;101872.63;6271074;22;20310;-84
2022/08/12 04:48:36;;;;;;;13.60;8.90;;;;;;;16.52;77.75;101875.25;6269852;22;20007;-84
2022/08/12 04:51:02;;;;;;;15.07;9.60;;;;;;;16.53;78.20;101871.72;6271261;22;20004;-84
2022/08/12 04:53:28;;;;;;;12.77;9.50;;;;;;;16.54;78.03;101864.72;6243800;22;19999;-85
2022/08/12 04:55:53;;;;;;;16.88;8.98;;;;;;;16.59;77.41;101865.44;6271643;22;20004;-84
2022/08/12 04:58:20;;;;;;;16.50;9.50;;;;;;;16.57;78.66;101859.41;6271893;22;20429;-84
2022/08/12 05:00:45;;;;;;;19.80;10.30;;;;;;;16.66;77.61;101868.75;6271897;22;20003;-85
2022/08/12 05:03:11;;;;;;;18.77;10.05;;;;;;;16.67;78.34;101859.97;6270433;22;20065;-85
2022/08/12 05:05:39;;;;;;;14.65;10.85;;;;;;;16.72;78.03;101871.19;6271234;22;20011;-84
2022/08/12 05:08:10;;;;;;;14.57;10.15;;;;;;;16.73;78.46;101867.63;6271132;22;20027;-84
2022/08/12 05:10:35;;;;;;;18.30;9.45;;;;;;;16.78;78.64;101877.06;6270987;22;20023;-85
2022/08/12 05:13:03;;;;;;;14.15;10.40;;;;;;;16.80;78.06;101875.25;6271518;22;20383;-84
2022/08/12 05:15:29;;;;;;;15.35;10.48;;;;;;;16.82;77.16;101870.81;6243140;22;20006;-84
2022/08/12 05:17:54;;;;;;;15.60;10.68;;;;;;;16.86;77.20;101874.19;6243641;22;20078;-84
2022/08/12 05:20:21;;;;;;;16.25;10.45;;;;;;;16.87;78.51;101876.75;6244318;22;20058;-84
2022/08/12 05:22:46;;;;;;;14.98;9.82;;;;;;;16.91;77.09;101869.66;6272051;22;20000;-84
2022/08/12 05:25:14;;;;;;;15.80;10.43;;;;;;;16.94;78.49;101880.03;6271046;22;20004;-84
2022/08/12 05:27:40;;;;;;;16.98;11.82;;;;;;;16.96;77.18;101878.22;6244217;22;20007;-85
2022/08/12 05:30:07;;;;;;;15.27;10.50;;;;;;;16.98;78.68;101873.78;6270116;22;20019;-85
2022/08/12 05:32:32;;;;;;;15.65;10.15;;;;;;;17.00;79.86;101879.81;6272217;22;20000;-85
2022/08/12 05:35:05;;;;;;;16.75;10.73;;;;;;;16.98;78.67;101873.78;6272242;22;20059;-84
2022/08/12 05:37:33;;;;;;;15.57;10.25;;;;;;;17.03;78.59;101876.25;6273106;22;20003;-84
2022/08/12 05:39:58;;;;;;;17.13;11.05;;;;;;;17.07;79.18;101889.19;6273511;22;20004;-85
2022/08/12 05:42:23;;;;;;;16.07;10.43;;;;;;;17.04;78.47;101875.34;6272688;22;20034;-84
2022/08/12 05:44:49;;;;;;;14.35;10.45;;;;;;;17.10;79.21;101888.22;6271933;22;20261;-83
2022/08/12 05:47:15;;;;;;;18.37;11.60;;;;;;;17.09;78.68;101884.75;6273527;22;20121;-84
2022/08/12 05:49:40;;;;;;;17.85;11.30;;;;;;;17.09;80.32;101876.03;6246038;22;20234;-84
2022/08/12 05:52:07;;;;;;;19.88;11.88;;;;;;;17.11;79.50;101879.47;6272809;22;20014;-84
2022/08/12 05:54:33;;;;;;;21.90;12.25;;;;;;;17.13;80.28;101885.47;6272494;22;20409;-85
2022/08/12 05:56:58;;;;;;;19.30;12.13;;;;;;;17.14;80.36;101889.81;6245990;22;20054;-83
2022/08/12 05:59:23;;;;;;;24.50;12.00;;;;;;;17.16;79.28;101891.50;6273444;22;20340;-83
2022/08/12 06:01:49;;;;;;;24.53;12.43;;;;;;;17.18;79.70;101900.16;6245257;22;20245;-84
2022/08/12 06:04:14;;;;;;;22.87;13.27;;;;;;;17.21;80.76;101901.81;6272752;22;20234;-84
2022/08/12 06:06:42;;;;;;;23.88;12.80;;;;;;;17.25;79.86;101895.56;6272934;22;20264;-85
2022/08/12 06:09:12;;;;;;;22.63;13.25;;;;;;;17.28;80.20;101896.31;6273887;22;20055;-85
2022/08/12 06:11:40;;;;;;;27.98;14.52;;;;;;;17.35;81.31;101895.19;6246255;22;20014;-84
2022/08/12 06:14:06;;;;;;;22.13;13.88;;;;;;;17.44;76.14;101891.38;6273185;22;20008;-84
2022/08/12 06:16:32;;;;;;;22.00;12.98;;;;;;;17.50;77.06;101901.66;6272951;22;20008;-84
2022/08/12 06:18:57;;;;;;;17.45;12.57;;;;;;;17.59;79.20;101903.09;6273271;22;20018;-85
2022/08/12 06:21:23;;;;;;;19.20;13.80;;;;;;;17.63;80.20;101891.63;6273408;22;19999;-84
2022/08/12 06:23:49;;;;;;;21.08;13.98;;;;;;;17.68;81.10;101887.91;6273582;22;20087;-84
2022/08/12 06:26:17;;;;;;;18.63;12.85;;;;;;;17.75;79.49;101893.78;6271932;22;20014;-84
2022/08/12 06:28:44;;;;;;;20.35;13.18;;;;;;;17.82;80.16;101899.66;6272667;22;20000;-84
2022/08/12 06:31:15;;;;;;;19.88;12.77;;;;;;;17.88;79.62;101902.91;6273029;22;20003;-84
2022/08/12 06:33:45;;;;;;;19.65;12.70;;;;;;;17.93;80.44;101906.25;6246148;22;20083;-84
2022/08/12 06:36:12;;;;;;;17.45;12.52;;;;;;;17.97;80.06;101902.56;6272167;22;20067;-85
2022/08/12 06:38:39;;;;;;;17.55;12.80;;;;;;;18.00;80.83;101897.22;6246251;22;20003;-84
2022/08/12 06:43:50;;;;;;;19.38;12.23;;;;;;;18.14;79.18;101896.72;6273285;22;20047;-83
2022/08/12 06:46:15;;;;;;;18.50;11.40;;;;;;;18.21;77.82;101899.94;6244916;22;20057;-84
2022/08/12 06:48:41;;;;;;;18.98;13.02;;;;;;;18.27;78.21;101887.44;6273384;22;20004;-85
2022/08/12 06:51:07;;;;;;;24.67;14.85;;;;;;;18.41;74.61;101886.91;6273410;22;20026;-84
2022/08/12 06:53:33;;;;;;;22.38;14.75;;;;;;;18.56;75.03;101888.94;6273477;22;20007;-84
2022/08/12 06:55:59;;;;;;;23.60;14.63;;;;;;;18.69;76.59;101884.06;6243433;22;20011;-85
2022/08/12 06:58:26;;;;;;;19.17;13.88;;;;;;;18.76;77.61;101883.75;6273186;22;20003;-86
2022/08/12 07:00:52;;;;;;;18.60;14.25;;;;;;;18.80;77.55;101872.19;6273170;22;20568;-85
2022/08/12 07:03:26;;;;;;;21.33;15.07;;;;;;;18.88;76.88;101872.72;6246042;22;20454;-85
2022/08/12 07:05:53;;;;;;;22.45;14.43;;;;;;;19.00;73.74;101881.84;6272105;22;20004;-85
2022/08/12 07:08:19;;;;;;;19.63;14.40;;;;;;;19.19;73.34;101874.88;6273390;22;20004;-81
2022/08/12 07:10:52;;;;;;;20.00;14.88;;;;;;;19.33;73.24;101877.78;6273030;22;20029;-81
2022/08/12 07:13:19;;;;;;;20.35;14.90;;;;;;;19.48;75.29;101867.53;6273369;22;20423;-81
2022/08/12 07:15:45;;;;;;;19.27;13.90;;;;;;;19.58;75.34;101872.31;6272318;22;20318;-81
2022/08/12 07:18:18;;;;;;;22.50;13.75;;;;;;;19.69;73.34;101870.06;6273357;22;20007;-81
2022/08/12 07:20:46;;;;;;;21.15;13.80;;;;;;;19.79;74.02;101885.47;6272128;22;20023;-81
2022/08/12 07:23:13;;;;;;;20.60;14.88;;;;;;;19.89;72.62;101892.84;6271836;22;19996;-81
2022/08/12 07:25:38;;;;;;;19.45;13.75;;;;;;;20.01;71.83;101884.38;6272606;22;20000;-80
2022/08/12 07:28:10;;;;;;;21.20;14.48;;;;;;;20.08;71.99;101891.06;6273222;22;20000;-81
2022/08/12 07:30:39;;;;;;;20.55;14.95;;;;;;;20.20;73.43;101891.44;6273286;22;20038;-81
2022/08/12 07:33:07;;;;;;;20.83;15.40;;;;;;;20.30;70.84;101895.34;6272758;22;20010;-80
2022/08/12 07:35:34;;;;;;;23.33;15.25;;;;;;;20.41;69.96;101893.91;6271836;22;20083;-81
2022/08/12 07:38:01;;;;;;;24.35;15.13;;;;;;;20.53;69.84;101900.41;6272251;22;20061;-81
2022/08/12 08:20:55;;;;;;;18.98;10.38;;;;;;;27.11;50.01;101888.41;6174737;22;20481;-85
2022/08/12 08:23:21;;;;;;;15.93;10.35;;;;;;;27.36;48.84;101884.72;6242358;22;20000;-85
2022/08/12 08:25:46;;;;;;;15.80;10.50;;;;;;;27.74;44.63;101900.38;6240241;23;20008;-85
2022/08/12 08:28:18;;;;;;;20.30;10.52;;;;;;;27.94;47.55;101898.78;6242455;22;20543;-85
2022/08/12 08:30:46;;;;;;;16.67;9.98;;;;;;;28.01;49.25;101905.31;6241974;22;20012;-85
2022/08/12 08:33:13;;;;;;;16.08;9.75;;;;;;;28.14;45.80;101909.56;6242326;22;20582;-85
2022/08/12 08:35:40;;;;;;;13.95;9.82;;;;;;;28.27;45.43;101904.94;6241517;22;20003;-85
2022/08/12 08:38:08;;;;;;;17.60;8.50;;;;;;;28.41;47.93;101901.13;6242474;22;20004;-85
2022/08/12 08:43:22;;;;;;;15.63;8.10;;;;;;;28.49;45.65;101904.03;6242083;22;20034;-85
2022/08/12 08:45:47;;;;;;;15.18;8.43;;;;;;;28.59;43.62;101902.28;6241370;22;20008;-85
2022/08/12 08:48:13;;;;;;;14.37;8.23;;;;;;;28.69;45.54;101907.72;6240499;23;20000;-85
2022/08/12 08:50:39;;;;;;;14.52;8.88;;;;;;;28.73;39.64;101902.97;6266168;22;20047;-85
2022/08/12 08:53:07;;;;;;;11.32;7.80;;;;;;;28.95;41.91;101895.72;6241772;22;20004;-85
2022/08/12 08:55:34;;;;;;;11.75;7.60;;;;;;;28.95;40.54;101901.06;6241663;23;20039;-85
2022/08/12 08:57:59;;;;;;;16.45;7.95;;;;;;;28.96;41.67;101901.91;6241919;22;20532;-85
2022/08/12 09:00:24;;;;;;;13.27;8.18;;;;;;;28.98;37.51;101900.81;6242139;22;20091;-85
2022/08/12 09:02:50;;;;;;;12.35;7.95;;;;;;;28.91;41.57;101901.47;6242496;22;20485;-86
2022/08/12 09:05:16;;;;;;;11.43;7.75;;;;;;;28.95;41.07;101902.88;6240877;22;20079;-85
2022/08/12 09:07:47;;;;;;;14.82;7.95;;;;;;;29.23;39.69;101901.38;6242362;22;20018;-85
2022/08/12 09:10:15;;;;;;;14.98;8.75;;;;;;;29.27;38.57;101909.03;6244115;22;20075;-85
2022/08/12 09:15:26;;;;;;;13.73;7.57;;;;;;;29.43;39.53;101893.38;6243744;23;20014;-86
2022/08/12 09:17:56;;;;;;;13.45;8.30;;;;;;;29.36;36.73;101896.72;6243094;23;20348;-85
2022/08/12 09:20:28;;;;;;;10.68;6.90;;;;;;;29.56;39.80;101897.66;6244183;22;20057;-85
2022/08/12 09:22:56;;;;;;;10.55;7.15;;;;;;;29.68;39.26;101894.78;6243686;22;20011;-85
2022/08/12 09:25:25;;;;;;;14.23;7.55;;;;;;;29.79;40.58;101902.69;6243036;22;19996;-85
2022/08/12 09:27:53;;;;;;;10.52;6.75;;;;;;;29.85;36.77;101893.28;6268270;22;20050;-85
2022/08/12 09:30:20;;;;;;;10.45;6.65;;;;;;;29.93;39.82;101890.81;6244414;22;20011;-85
2022/08/12 09:32:50;;;;;;;11.60;6.30;;;;;;;30.01;39.26;101890.97;6244384;22;20006;-85
2022/08/12 09:35:22;;;;;;;9.05;6.18;;;;;;;30.18;35.57;101887.63;6242787;22;19996;-85
2022/08/12 09:37:48;;;;;;;12.13;5.82;;;;;;;30.25;37.26;101882.56;6244454;22;20375;-86
2022/08/12 09:40:15;;;;;;;9.77;5.97;;;;;;;30.18;35.63;101886.78;6240246;23;20485;-86
2022/08/12 09:45:26;;;;;;;9.30;6.50;;;;;;;30.46;37.98;101877.94;6243344;23;20059;-85
2022/08/12 09:47:52;;;;;;;10.25;6.47;;;;;;;30.37;35.18;101872.56;6243916;22;20004;-85
2022/08/12 09:50:18;;;;;;;9.05;6.10;;;;;;;30.39;33.63;101867.94;6242925;22;20006;-84
2022/08/12 09:52:45;;;;;;;11.30;6.20;;;;;;;30.34;34.60;101876.38;6244270;22;20399;-84
2022/08/12 09:55:14;;;;;;;12.65;5.95;;;;;;;30.29;32.20;101867.94;6239492;22;20027;-84
2022/08/12 09:57:39;;;;;;;9.02;6.05;;;;;;;30.08;34.11;101873.41;6243534;22;20062;-84
2022/08/12 10:00:10;;;;;;;10.00;5.80;;;;;;;30.06;33.58;101870.00;6243650;23;20004;-84
2022/08/12 10:02:37;;;;;;;11.70;5.65;;;;;;;30.19;30.88;101864.41;6243024;22;20030;-85
2022/08/12 10:05:04;;;;;;;9.60;5.68;;;;;;;30.03;32.75;101872.09;6242624;22;20600;-84
2022/08/12 10:07:29;;;;;;;10.88;5.85;;;;;;;30.15;31.33;101857.66;6241580;22;20004;-85
2022/08/12 10:09:54;;;;;;;10.70;5.73;;;;;;;30.16;33.93;101857.47;6243539;23;20126;-85
2022/08/12 10:15:04;;;;;;;;;;;;;;;30.51;36.03;101856.13;6243247;23;20292;-84
2022/08/12 10:17:30;;;;;;;12.90;5.90;;;;;;;30.39;31.37;101851.88;6241238;22;19982;-84
2022/08/12 10:19:55;;;;;;;8.38;6.07;;;;;;;30.17;30.90;101848.47;6242189;22;20003;-84
2022/08/12 10:22:21;;;;;;;9.15;6.20;;;;;;;30.12;31.82;101847.22;6241809;22;20016;-84
2022/08/12 10:29:35;;;;;;;9.47;5.90;;;;;;;30.17;33.37;101842.28;6243170;22;20111;-84
2022/08/12 10:30:16;;;;;;;9.05;5.57;;;;;;;30.33;32.58;101847.09;6242652;23;20454;-85
2022/08/12 10:32:42;;;;;;;12.75;5.68;;;;;;;30.25;32.82;101845.09;6243609;22;20004;-85
2022/08/12 10:35:08;;;;;;;6.50;5.60;;;;;;;30.27;32.16;101839.63;6242649;22;20071;-84
2022/08/12 10:37:34;;;;;;;7.53;5.72;;;;;;;30.37;30.95;101837.78;6242166;22;20110;-85
2022/08/12 10:39:59;;;;;;;8.75;5.50;;;;;;;30.30;31.45;101836.69;6243034;22;20004;-85
2022/08/12 10:45:08;;;;;;;9.15;6.07;;;;;;;30.31;33.03;101820.47;6243144;23;20067;-85
2022/08/12 10:47:36;;;;;;;6.75;6.05;;;;;;;30.37;30.75;101821.72;6241895;22;20003;-85
2022/08/12 10:50:04;;;;;;;8.05;5.60;;;;;;;30.26;31.20;101814.69;6242805;22;19997;-85
2022/08/12 10:52:31;;;;;;;6.97;5.80;;;;;;;30.23;32.11;101815.81;6243440;22;20012;-85
2022/08/12 10:54:58;;;;;;;7.40;5.90;;;;;;;30.19;30.63;101811.75;6243450;22;20004;-85
2022/08/12 10:57:25;;;;;;;7.15;5.80;;;;;;;30.22;30.81;101806.13;6242440;22;20341;-85
2022/08/12 10:59:55;;;;;;;8.90;6.15;;;;;;;30.27;32.28;101808.38;6266706;22;20374;-84
2022/08/12 11:02:23;;;;;;;7.63;5.82;;;;;;;30.41;30.69;101802.59;6241989;22;20004;-86
2022/08/12 11:04:49;;;;;;;9.40;6.28;;;;;;;30.46;30.55;101802.16;6242864;22;20079;-85
2022/08/12 11:07:16;;;;;;;7.65;5.72;;;;;;;30.55;29.64;101794.16;6242199;22;20378;-85
2022/08/12 11:09:43;;;;;;;9.43;5.78;;;;;;;30.42;31.06;101790.06;6241413;22;20000;-85
2022/08/12 11:12:08;;;;;;;8.40;6.05;;;;;;;30.36;31.19;101788.81;6242986;22;20379;-86
2022/08/12 11:14:37;;;;;;;8.93;6.45;;;;;;;30.39;31.21;101790.34;6243305;23;20405;-85
2022/08/12 11:17:11;;;;;;;8.63;5.82;;;;;;;30.29;32.46;101779.66;6241784;22;20391;-85
2022/08/12 11:19:38;;;;;;;7.70;5.97;;;;;;;30.38;32.02;101785.97;6242391;22;20000;-84
2022/08/12 11:22:08;;;;;;;7.55;6.07;;;;;;;30.27;32.02;101786.13;6266669;22;20099;-85
2022/08/12 11:24:34;;;;;;;10.98;6.55;;;;;;;30.23;30.96;101781.03;6242302;22;20075;-84
2022/08/12 11:27:02;;;;;;;10.15;6.05;;;;;;;30.31;29.86;101779.47;6266588;22;20034;-85
2022/08/12 11:29:28;;;;;;;9.20;5.88;;;;;;;30.22;31.01;101767.81;6240430;22;20363;-85
2022/08/12 11:31:54;;;;;;;7.20;6.40;;;;;;;30.28;29.04;101774.44;6242590;22;20026;-85
2022/08/12 11:34:20;;;;;;;8.50;6.25;;;;;;;30.14;31.37;101771.19;6241117;22;20432;-85
2022/08/12 11:36:50;;;;;;;18.08;6.80;;;;;;;30.16;30.79;101771.06;6241909;22;20008;-85
2022/08/12 11:39:16;;;;;;;9.55;6.40;;;;;;;30.11;31.16;101773.28;6241263;22;20008;-85
2022/08/12 11:41:42;;;;;;;10.07;6.05;;;;;;;30.09;32.23;101767.25;6240275;22;20035;-85
2022/08/12 11:44:07;;;;;;;11.88;6.55;;;;;;;30.11;31.78;101765.28;6240387;23;20016;-85
2022/08/12 11:46:36;;;;;;;11.03;6.33;;;;;;;30.04;32.97;101764.13;6240687;23;20324;-84
2022/08/12 11:49:03;;;;;;;7.78;6.18;;;;;;;30.07;31.62;101756.69;6242922;22;20019;-85
2022/08/12 11:51:29;;;;;;;8.52;6.38;;;;;;;30.13;32.33;101747.25;6242456;22;20436;-85
2022/08/12 11:53:54;;;;;;;9.27;6.45;;;;;;;30.15;30.99;101753.31;6242432;22;20457;-85
2022/08/12 11:56:19;;;;;;;10.93;6.13;;;;;;;30.12;31.79;101753.59;6240680;22;20000;-84
2022/08/12 11:58:45;;;;;;;9.73;6.20;;;;;;;30.00;31.31;101755.56;6240223;23;20004;-85
2022/08/12 12:01:10;;;;;;;13.93;6.63;;;;;;;29.99;31.30;101747.69;6241240;23;20076;-85
2022/08/12 12:03:35;;;;;;;9.30;6.40;;;;;;;30.04;29.36;101750.78;6241596;23;20262;-85
2022/08/12 12:06:00;;;;;;;7.97;5.90;;;;;;;30.09;28.68;101738.66;6241197;22;20300;-85
2022/08/12 12:08:26;;;;;;;10.43;6.35;;;;;;;30.03;29.72;101744.56;6241436;23;20011;-86
2022/08/12 12:10:53;;;;;;;9.65;6.03;;;;;;;30.01;29.09;101743.88;6241877;22;20004;-85
2022/08/12 12:13:20;;;;;;;10.23;6.40;;;;;;;30.14;29.57;101743.59;6241854;22;20004;-86
2022/08/12 12:15:46;;;;;;;18.48;6.32;;;;;;;30.18;28.21;101736.97;6240696;22;20080;-85
2022/08/12 12:18:19;;;;;;;11.52;6.00;;;;;;;30.22;30.05;101727.69;6241379;22;20442;-85
2022/08/12 12:20:45;;;;;;;12.73;6.25;;;;;;;30.30;28.61;101740.38;6242160;22;20015;-85
2022/08/12 12:23:10;;;;;;;10.68;6.30;;;;;;;30.26;28.33;101736.28;6237401;22;20004;-85
2022/08/12 12:25:35;;;;;;;8.55;6.35;;;;;;;30.26;29.40;101726.41;6240589;23;20740;-86
2022/08/12 12:28:01;;;;;;;14.50;6.33;;;;;;;30.34;27.60;101731.06;6241841;23;20004;-85
2022/08/12 12:30:26;;;;;;;12.83;6.37;;;;;;;30.37;27.47;101728.06;6242121;23;20023;-85
2022/08/12 12:32:52;;;;;;;9.68;6.30;;;;;;;30.34;27.67;101721.19;6241381;23;20231;-85
2022/08/12 12:35:17;;;;;;;8.93;6.15;;;;;;;30.26;30.53;101728.25;6239483;23;20471;-85
2022/08/12 12:37:50;;;;;;;12.18;6.60;;;;;;;30.31;27.95;101721.47;6239914;23;20004;-85
2022/08/12 12:40:16;;;;;;;14.15;6.57;;;;;;;30.19;29.26;101709.25;6241837;22;20007;-84
2022/08/12 12:42:41;;;;;;;11.23;7.00;;;;;;;30.20;30.00;101703.75;6240987;22;20383;-84
2022/08/12 12:45:07;;;;;;;13.83;6.53;;;;;;;30.25;28.61;101700.63;6241231;23;20007;-83
2022/08/12 12:47:32;;;;;;;8.40;6.55;;;;;;;30.24;30.21;101702.47;6242016;22;20070;-83
2022/08/12 12:49:58;;;;;;;8.53;6.00;;;;;;;30.28;29.50;101697.69;6241167;23;20373;-83
2022/08/12 12:52:23;;;;;;;8.50;6.27;;;;;;;30.29;30.99;101701.22;6241451;23;20010;-83
2022/08/12 12:54:56;;;;;;;8.50;6.30;;;;;;;30.29;29.36;101688.69;6240247;23;20003;-83
2022/08/12 12:57:23;;;;;;;9.20;6.80;;;;;;;30.36;29.60;101697.81;6241151;22;20242;-84
2022/08/12 13:00:13;;;;;;;9.90;6.18;;;;;;;30.31;29.42;101685.84;6242116;22;20023;-84
2022/08/12 13:02:39;;;;;;;8.93;6.25;;;;;;;30.36;30.56;101680.94;6240338;23;20077;-84
2022/08/12 13:05:05;;;;;;;8.23;5.97;;;;;;;30.27;31.20;101689.81;6240463;23;20083;-84
2022/08/12 13:07:31;;;;;;;8.30;6.10;;;;;;;30.40;30.55;101682.31;6242098;22;20038;-84
2022/08/12 13:09:56;;;;;;;9.77;5.97;;;;;;;30.43;28.44;101682.88;6239844;23;20000;-84
2022/08/12 13:12:21;;;;;;;8.93;5.87;;;;;;;30.35;30.37;101672.06;6241367;23;20000;-83
2022/08/12 13:14:46;;;;;;;9.13;6.20;;;;;;;30.36;30.36;101678.25;6241661;22;19997;-84
2022/08/12 13:17:16;;;;;;;9.27;5.90;;;;;;;30.41;28.56;101662.59;6240407;23;20383;-84
2022/08/12 13:19:41;;;;;;;7.93;5.88;;;;;;;30.51;29.20;101668.78;6241498;22;20353;-84
2022/08/12 13:22:16;;;;;;;9.25;5.88;;;;;;;30.49;30.07;101665.41;6239667;23;20495;-84
2022/08/12 13:24:42;;;;;;;10.07;5.90;;;;;;;30.54;31.44;101663.16;6241599;23;20035;-84
2022/08/12 13:27:07;;;;;;;7.25;5.60;;;;;;;30.49;28.35;101663.59;6240989;22;20000;-84
2022/08/12 13:29:33;;;;;;;11.35;5.68;;;;;;;30.49;27.22;101666.28;6241892;22;20004;-84
2022/08/12 13:32:01;;;;;;;10.15;5.70;;;;;;;30.56;28.43;101670.06;6241861;23;20004;-84
2022/08/12 13:34:26;;;;;;;8.15;5.30;;;;;;;30.56;28.50;101666.53;6240819;23;20040;-83
2022/08/12 13:36:51;;;;;;;6.28;5.13;;;;;;;30.53;28.75;101661.47;6240758;22;20024;-84
2022/08/12 13:39:20;;;;;;;7.72;5.05;;;;;;;30.52;29.06;101667.78;6241309;23;20421;-84
2022/08/12 13:41:46;;;;;;;7.53;5.00;;;;;;;30.55;26.76;101668.38;6241384;22;20477;-85
2022/08/12 13:44:11;;;;;;;7.18;5.10;;;;;;;30.60;27.98;101668.75;6241369;22;20011;-84
2022/08/12 13:46:39;;;;;;;6.47;4.78;;;;;;;30.66;26.66;101658.44;6241582;22;20001;-85
2022/08/12 13:49:06;;;;;;;6.05;5.13;;;;;;;30.57;27.31;101658.34;6240319;22;20069;-84